Terminal Aerodrome Forecast
Issued by NWS Jackson, MS

Home | Current Version | Previous Version | Text Only | Print | Product List | Glossary On
Versions: 1 2 3 4 5 6 7 8 9 10 11 12 13
000
FTUS44 KJAN 261135
TAFGLH
TAF
KGLH 261135Z 2612/2712 30008KT P6SM -SHRA BKN100
     FM261400 36007KT P6SM VCTS SCT008 BKN012CB
     FM261700 01012KT P6SM BKN050
     FM261800 02011G17KT P6SM BKN100
     FM261900 36012KT P6SM OVC250=

USA.gov is the U.S. government's official web portal to all federal, state and local government web resources and services.